Time;durP1;ratioP1;P1;durP2;ratioP2;P2;SDS_P1;SDS_P2;PMS_P1;PMS_P2;Temp;Humidity;BMP_temperature;BMP_pressure;BME280_temperature;BME280_humidity;BME280_pressure;Samples;Min_cycle;Max_cycle;Signal;HPM_P1;HPM_P2
2022/06/26 00:00:43;;;;;;;3.87;3.50;;;17.30;99.90;;;;;;4995110;28;20179;-74
2022/06/26 00:03:08;;;;;;;4.10;2.83;;;17.30;99.90;;;;;;4995363;28;20180;-75
2022/06/26 00:05:34;;;;;;;3.57;2.90;;;17.30;99.90;;;;;;4995229;28;20179;-75
2022/06/26 00:07:59;;;;;;;3.90;3.60;;;17.30;99.90;;;;;;4995188;28;20893;-74
2022/06/26 00:10:25;;;;;;;3.67;3.43;;;17.30;99.90;;;;;;4995080;28;20179;-73
2022/06/26 00:12:51;;;;;;;4.50;3.27;;;17.20;99.90;;;;;;4994793;28;20210;-74
2022/06/26 00:15:16;;;;;;;3.87;3.57;;;17.20;99.90;;;;;;4995232;28;20183;-75
2022/06/26 00:17:42;;;;;;;4.03;2.63;;;17.30;99.90;;;;;;4994710;28;20592;-75
2022/06/26 00:20:08;;;;;;;4.53;3.70;;;17.30;99.90;;;;;;4995032;28;20167;-76
2022/06/26 00:22:34;;;;;;;3.23;3.07;;;17.30;99.90;;;;;;4994717;28;20199;-74
2022/06/26 00:24:59;;;;;;;4.03;3.47;;;17.30;99.90;;;;;;4994913;28;20418;-75
2022/06/26 00:27:25;;;;;;;3.40;3.10;;;17.30;99.90;;;;;;4994911;28;20179;-75
2022/06/26 00:29:51;;;;;;;6.83;3.00;;;17.30;99.90;;;;;;4994705;28;20194;-74
2022/06/26 00:32:16;;;;;;;3.70;3.40;;;17.20;99.90;;;;;;4994260;28;20266;-74
2022/06/26 00:34:42;;;;;;;4.13;3.47;;;17.20;99.90;;;;;;4994655;28;20183;-74
2022/06/26 00:37:07;;;;;;;5.43;3.77;;;17.30;99.90;;;;;;4994579;28;20661;-74
2022/06/26 00:39:33;;;;;;;2.87;2.67;;;17.30;99.90;;;;;;4994493;28;20247;-75
2022/06/26 00:41:58;;;;;;;2.67;2.47;;;17.40;99.90;;;;;;4994406;28;20195;-75
2022/06/26 00:44:25;;;;;;;3.20;3.00;;;17.40;99.90;;;;;;4993657;28;20238;-75
2022/06/26 00:46:52;;;;;;;3.60;2.63;;;17.60;99.90;;;;;;4994441;28;20179;-75
2022/06/26 00:49:18;;;;;;;3.07;2.87;;;17.60;99.90;;;;;;4994340;28;20497;-75
2022/06/26 00:51:55;;;;;;;2.40;2.23;;;17.70;99.90;;;;;;4994409;28;20441;-75
2022/06/26 00:54:23;;;;;;;1.97;1.87;;;17.80;99.90;;;;;;4994395;28;20411;-74
2022/06/26 00:56:49;;;;;;;2.23;2.00;;;17.90;99.90;;;;;;4994296;28;20454;-74
2022/06/26 00:59:15;;;;;;;2.10;1.90;;;18.10;99.90;;;;;;4994320;28;20943;-74
2022/06/26 02:30:49;;;;;;;3.23;2.73;;;18.40;99.90;;;;;;6087032;23;20373;-73
2022/06/26 02:33:15;;;;;;;2.60;2.40;;;18.30;99.90;;;;;;4968865;28;20466;-74
2022/06/26 02:35:40;;;;;;;3.90;2.80;;;18.20;99.90;;;;;;4972897;28;20435;-76
2022/06/26 02:38:06;;;;;;;2.80;2.50;;;18.20;99.90;;;;;;4973597;28;20459;-76
2022/06/26 02:40:32;;;;;;;4.40;2.80;;;18.10;99.90;;;;;;4973442;28;20180;-75
2022/06/26 02:42:57;;;;;;;2.60;2.40;;;18.10;99.90;;;;;;4969232;28;20743;-76
2022/06/26 02:45:23;;;;;;;2.57;2.37;;;18.10;99.90;;;;;;4953811;28;20251;-75
2022/06/26 02:47:49;;;;;;;2.77;2.57;;;18.00;99.90;;;;;;4954025;28;20192;-76
2022/06/26 02:50:15;;;;;;;2.20;2.10;;;18.00;99.90;;;;;;4954039;28;20181;-75
2022/06/26 02:52:41;;;;;;;2.73;2.53;;;18.00;99.90;;;;;;4953571;28;20440;-75
2022/06/26 02:55:07;;;;;;;5.13;2.53;;;17.90;99.90;;;;;;4954010;28;20416;-75
2022/06/26 02:57:33;;;;;;;3.20;2.90;;;17.90;99.90;;;;;;4953605;28;20263;-75
2022/06/26 02:59:58;;;;;;;3.43;2.50;;;17.90;99.90;;;;;;4953775;28;20921;-75
2022/06/26 03:02:24;;;;;;;4.00;2.87;;;17.90;99.90;;;;;;4953451;28;20189;-75
2022/06/26 03:04:51;;;;;;;3.67;2.90;;;17.80;99.90;;;;;;4953703;28;20168;-75
2022/06/26 03:07:17;;;;;;;6.13;2.50;;;17.80;99.90;;;;;;4955435;28;20180;-76
2022/06/26 03:09:42;;;;;;;3.33;3.00;;;17.70;99.90;;;;;;4957550;28;20423;-75
2022/06/26 03:12:08;;;;;;;5.70;2.50;;;17.80;99.90;;;;;;4957458;28;20209;-76
2022/06/26 03:14:34;;;;;;;3.43;2.50;;;17.70;99.90;;;;;;4957308;28;20642;-75
2022/06/26 03:16:59;;;;;;;3.83;2.90;;;17.70;99.90;;;;;;4957248;28;20669;-75
2022/06/26 03:19:25;;;;;;;7.77;2.77;;;17.70;99.90;;;;;;4957215;28;20649;-76
2022/06/26 03:21:50;;;;;;;3.03;2.23;;;17.80;99.90;;;;;;4957115;28;20193;-76
2022/06/26 03:24:16;;;;;;;3.27;2.90;;;17.70;99.90;;;;;;4957058;28;20191;-76
2022/06/26 03:26:42;;;;;;;2.90;2.20;;;17.70;99.90;;;;;;4956273;28;20231;-75
2022/06/26 03:29:09;;;;;;;2.60;2.40;;;17.60;99.90;;;;;;4957178;28;20424;-75
2022/06/26 03:31:36;;;;;;;7.30;2.53;;;17.70;99.90;;;;;;4956897;28;20324;-75
2022/06/26 03:34:01;;;;;;;3.53;2.63;;;17.60;99.90;;;;;;4957185;28;20424;-75
2022/06/26 03:36:30;;;;;;;4.73;3.40;;;17.60;99.90;;;;;;4956821;28;20428;-76
2022/06/26 03:38:56;;;;;;;2.80;2.10;;;17.60;99.90;;;;;;4957092;28;20512;-75
2022/06/26 03:41:22;;;;;;;2.53;2.40;;;17.60;99.90;;;;;;4956619;28;20851;-75
2022/06/26 03:43:48;;;;;;;6.30;2.80;;;17.70;99.90;;;;;;4956950;28;20444;-75
2022/06/26 03:46:14;;;;;;;4.23;2.47;;;17.70;99.90;;;;;;4957017;28;20420;-76
2022/06/26 03:48:41;;;;;;;2.93;2.40;;;17.70;99.90;;;;;;4956862;28;20712;-76
2022/06/26 03:51:07;;;;;;;3.57;2.87;;;17.70;99.90;;;;;;4956629;28;20495;-75
2022/06/26 03:53:34;;;;;;;2.20;2.10;;;17.70;99.90;;;;;;4956606;28;20502;-75
2022/06/26 03:55:59;;;;;;;3.07;2.80;;;17.70;99.90;;;;;;4956694;28;20420;-76
2022/06/26 03:58:25;;;;;;;4.73;2.43;;;17.70;99.90;;;;;;4956525;28;20796;-76
2022/06/26 04:00:51;;;;;;;3.37;2.47;;;17.70;99.90;;;;;;4956753;28;20176;-75
2022/06/26 04:03:17;;;;;;;3.30;2.40;;;17.70;99.90;;;;;;4956425;28;20600;-76
2022/06/26 04:05:43;;;;;;;5.80;3.20;;;17.70;99.90;;;;;;4956804;28;20408;-75
2022/06/26 04:08:09;;;;;;;2.63;2.53;;;17.80;99.90;;;;;;4956516;28;20412;-75
2022/06/26 04:10:35;;;;;;;4.40;2.60;;;17.80;99.90;;;;;;4956429;28;20188;-74
2022/06/26 04:13:03;;;;;;;2.47;2.27;;;17.80;99.90;;;;;;4956432;28;20185;-76
2022/06/26 04:15:30;;;;;;;2.60;1.93;;;17.80;99.90;;;;;;4956320;28;20184;-76
2022/06/26 04:17:56;;;;;;;3.50;2.33;;;17.80;99.90;;;;;;4955218;28;20464;-76
2022/06/26 04:20:22;;;;;;;2.57;2.37;;;17.90;99.90;;;;;;4955950;28;20829;-75
2022/06/26 04:23:17;;;;;;;2.33;2.23;;;17.90;99.90;;;;;;4956125;28;20587;-75
2022/06/26 04:25:43;;;;;;;9.73;2.50;;;18.00;99.90;;;;;;4951868;28;20428;-75
2022/06/26 04:28:09;;;;;;;2.03;1.93;;;18.00;99.90;;;;;;4956254;28;20438;-75
2022/06/26 04:30:36;;;;;;;2.10;2.00;;;18.00;99.90;;;;;;4955861;28;20231;-74
2022/06/26 04:33:02;;;;;;;2.20;1.80;;;18.00;99.90;;;;;;4955865;28;20447;-75
2022/06/26 04:35:27;;;;;;;2.60;2.40;;;18.10;99.90;;;;;;4955951;28;20421;-75
2022/06/26 04:37:53;;;;;;;2.53;2.33;;;18.10;99.90;;;;;;4955946;28;20764;-75
2022/06/26 04:40:18;;;;;;;2.80;2.60;;;18.20;99.90;;;;;;4955923;28;20652;-75
2022/06/26 04:42:44;;;;;;;2.60;2.40;;;18.20;99.90;;;;;;4955675;28;20204;-76
2022/06/26 04:45:11;;;;;;;2.00;1.90;;;18.20;99.90;;;;;;4955970;28;20177;-75
2022/06/26 04:47:37;;;;;;;3.47;2.30;;;18.20;99.90;;;;;;4955972;28;20928;-75
2022/06/26 04:50:04;;;;;;;2.13;1.80;;;18.20;99.90;;;;;;4956038;28;20417;-75
2022/06/26 04:52:29;;;;;;;2.10;1.87;;;18.30;99.90;;;;;;4955552;28;20463;-75
2022/06/26 04:54:55;;;;;;;1.90;1.70;;;18.40;99.90;;;;;;4970695;28;20412;-76
2022/06/26 04:57:21;;;;;;;2.53;2.27;;;18.50;99.90;;;;;;4955431;28;20310;-75
2022/06/26 04:59:46;;;;;;;3.63;1.90;;;18.50;99.90;;;;;;4955734;28;20564;-75
2022/06/26 05:02:12;;;;;;;2.40;2.30;;;18.60;99.90;;;;;;4955301;28;20484;-75
2022/06/26 05:04:38;;;;;;;2.10;1.87;;;18.60;99.90;;;;;;4955583;28;20204;-75
2022/06/26 05:07:04;;;;;;;3.97;2.47;;;18.70;99.90;;;;;;4956085;28;20185;-76
2022/06/26 05:09:30;;;;;;;2.00;1.90;;;18.70;99.90;;;;;;4955685;28;20769;-76
2022/06/26 05:11:56;;;;;;;2.97;2.27;;;18.80;99.90;;;;;;4955491;28;20462;-76
2022/06/26 05:14:22;;;;;;;3.40;1.93;;;18.80;99.90;;;;;;4955050;28;20845;-77
2022/06/26 05:16:48;;;;;;;2.50;2.37;;;18.90;99.90;;;;;;4955344;28;20467;-75
2022/06/26 05:19:13;;;;;;;2.10;2.00;;;19.00;99.90;;;;;;4955150;28;20172;-75
2022/06/26 05:21:39;;;;;;;2.60;2.20;;;19.00;99.90;;;;;;4955118;28;20224;-76
2022/06/26 05:24:05;;;;;;;2.53;2.03;;;19.10;99.90;;;;;;4955128;28;20424;-75
2022/06/26 05:26:31;;;;;;;3.97;2.10;;;19.20;99.90;;;;;;4955071;28;20422;-75
2022/06/26 05:28:57;;;;;;;2.33;2.17;;;19.30;99.90;;;;;;4954947;28;20187;-76
2022/06/26 05:31:23;;;;;;;3.10;2.17;;;19.30;99.90;;;;;;4954237;28;20473;-76
2022/06/26 05:33:48;;;;;;;1.77;1.67;;;19.30;99.90;;;;;;4954894;28;20179;-75
2022/06/26 05:36:14;;;;;;;3.53;1.80;;;19.40;99.90;;;;;;4955013;28;20931;-74
2022/06/26 05:38:41;;;;;;;6.93;1.57;;;19.50;99.90;;;;;;4954892;28;20177;-76
2022/06/26 05:41:07;;;;;;;1.33;1.23;;;19.60;99.90;;;;;;4954532;28;20220;-75
2022/06/26 05:43:32;;;;;;;1.47;1.37;;;19.70;99.90;;;;;;4954558;28;20917;-75
2022/06/26 05:45:58;;;;;;;1.43;1.33;;;19.80;99.90;;;;;;4954575;28;20419;-75
2022/06/26 05:48:24;;;;;;;1.30;1.20;;;19.80;99.90;;;;;;4954475;28;20212;-76
2022/06/26 05:50:50;;;;;;;2.90;1.73;;;19.90;99.90;;;;;;4954353;28;20507;-75
2022/06/26 05:53:17;;;;;;;1.23;1.20;;;20.00;99.90;;;;;;4954498;28;20192;-76
2022/06/26 05:55:42;;;;;;;3.23;1.33;;;20.00;99.90;;;;;;4954593;28;20423;-76
2022/06/26 05:58:08;;;;;;;5.80;1.37;;;20.10;99.90;;;;;;4954402;28;20877;-75
2022/06/26 06:00:34;;;;;;;0.97;0.97;;;20.20;99.90;;;;;;4954048;28;20703;-74
2022/06/26 06:03:00;;;;;;;1.90;1.30;;;20.70;99.90;;;;;;4954433;28;20181;-76
2022/06/26 06:05:26;;;;;;;1.33;1.23;;;21.60;99.90;;;;;;4954198;28;20836;-75
2022/06/26 06:07:53;;;;;;;1.50;1.40;;;22.50;99.90;;;;;;4954182;28;20416;-75
2022/06/26 06:10:19;;;;;;;1.37;1.27;;;23.40;99.90;;;;;;4954137;28;20176;-75
2022/06/26 06:12:46;;;;;;;1.20;1.10;;;24.10;99.90;;;;;;4953963;28;20941;-75
2022/06/26 06:15:11;;;;;;;2.10;1.00;;;24.60;99.90;;;;;;4954337;28;20889;-76
2022/06/26 06:17:37;;;;;;;1.57;0.90;;;24.90;99.90;;;;;;4954046;28;20467;-75
2022/06/26 06:20:13;;;;;;;1.10;1.00;;;25.10;99.90;;;;;;4954356;28;20511;-75
2022/06/26 06:22:53;;;;;;;0.80;0.80;;;25.20;99.90;;;;;;4953733;28;20199;-75
2022/06/26 06:25:20;;;;;;;1.07;0.97;;;25.40;99.90;;;;;;4954009;28;20412;-75
2022/06/26 06:27:45;;;;;;;0.70;0.70;;;25.80;99.90;;;;;;4952725;28;20506;-76
2022/06/26 06:30:12;;;;;;;0.70;0.60;;;26.10;99.90;;;;;;4954075;28;20882;-76
2022/06/26 06:32:40;;;;;;;0.80;0.67;;;26.10;99.90;;;;;;4953591;28;20613;-76
2022/06/26 06:35:06;;;;;;;1.03;0.70;;;26.40;99.90;;;;;;4954147;28;20431;-75
2022/06/26 06:37:32;;;;;;;2.00;0.70;;;26.50;99.90;;;;;;4953509;28;20460;-76
2022/06/26 06:39:58;;;;;;;1.10;1.00;;;26.60;99.90;;;;;;4954134;28;20412;-76
2022/06/26 06:42:23;;;;;;;0.90;0.70;;;26.90;99.90;;;;;;4952816;28;20507;-76
2022/06/26 06:44:49;;;;;;;1.57;0.80;;;27.30;99.90;;;;;;4953873;28;20645;-76
2022/06/26 06:47:14;;;;;;;1.87;1.43;;;27.10;99.90;;;;;;4954046;28;20187;-76
2022/06/26 06:49:40;;;;;;;1.10;0.57;;;27.30;99.90;;;;;;4953761;28;20176;-75
2022/06/26 06:52:07;;;;;;;1.13;1.00;;;27.60;99.90;;;;;;4953502;28;20216;-76
2022/06/26 06:54:33;;;;;;;1.07;0.87;;;28.00;99.90;;;;;;4953339;28;20180;-75
2022/06/26 06:56:59;;;;;;;0.90;0.70;;;27.90;99.90;;;;;;4953602;28;20471;-75
2022/06/26 06:59:25;;;;;;;0.80;0.80;;;27.90;99.90;;;;;;4953395;28;20173;-76
2022/06/26 07:01:50;;;;;;;3.03;0.87;;;27.60;99.90;;;;;;4953261;28;20192;-76
2022/06/26 07:04:17;;;;;;;0.77;0.77;;;27.60;99.90;;;;;;4953436;28;20180;-75
2022/06/26 07:06:42;;;;;;;0.87;0.87;;;27.20;99.90;;;;;;4953635;28;20192;-75
2022/06/26 07:09:08;;;;;;;0.93;0.80;;;27.20;99.90;;;;;;4953551;28;20409;-76
2022/06/26 07:11:34;;;;;;;0.80;0.80;;;27.50;99.90;;;;;;4953315;28;20197;-75
2022/06/26 07:14:00;;;;;;;0.97;0.67;;;27.80;99.90;;;;;;4953527;28;20239;-75
2022/06/26 07:16:25;;;;;;;0.83;0.70;;;27.80;99.90;;;;;;4953332;28;20255;-76
2022/06/26 07:18:51;;;;;;;1.43;0.97;;;28.20;99.90;;;;;;4953507;28;20177;-76
2022/06/26 07:21:17;;;;;;;1.20;0.70;;;27.70;99.90;;;;;;4953138;28;20197;-75
2022/06/26 07:23:42;;;;;;;0.93;0.93;;;27.80;99.90;;;;;;4953373;28;20462;-76
2022/06/26 07:26:08;;;;;;;1.90;1.37;;;27.90;99.90;;;;;;4968247;28;20701;-75
2022/06/26 07:28:33;;;;;;;1.53;0.70;;;28.10;99.90;;;;;;4953230;28;20177;-75
2022/06/26 07:30:59;;;;;;;0.90;0.80;;;28.40;99.90;;;;;;4952895;28;20744;-76
2022/06/26 07:36:09;;;;;;;1.33;1.03;;;28.50;99.90;;;;;;4953415;29;20567;-75
2022/06/26 07:38:35;;;;;;;0.83;0.70;;;28.60;99.90;;;;;;4953013;28;20546;-76
2022/06/26 07:41:00;;;;;;;1.00;1.00;;;29.20;99.90;;;;;;4952929;28;20280;-75
2022/06/26 07:43:26;;;;;;;0.80;0.60;;;29.60;99.90;;;;;;4952985;28;20243;-75
2022/06/26 07:45:52;;;;;;;1.33;0.63;;;29.70;99.90;;;;;;4953162;28;20216;-76
2022/06/26 07:48:17;;;;;;;0.80;0.80;;;29.60;99.90;;;;;;4953063;28;20239;-76
2022/06/26 07:50:43;;;;;;;1.80;0.70;;;29.50;99.90;;;;;;4952692;28;20635;-75
2022/06/26 07:53:09;;;;;;;1.10;0.77;;;29.30;99.90;;;;;;4954622;28;20177;-76
2022/06/26 07:55:35;;;;;;;0.87;0.80;;;29.60;99.90;;;;;;4955363;28;20717;-76
2022/06/26 07:58:01;;;;;;;2.20;0.70;;;29.70;99.90;;;;;;4956629;28;20463;-76
2022/06/26 08:00:26;;;;;;;3.03;0.73;;;30.00;99.90;;;;;;4956730;28;20922;-75
2022/06/26 08:02:52;;;;;;;0.93;0.80;;;29.80;99.90;;;;;;4956306;28;20610;-76
2022/06/26 08:05:18;;;;;;;0.90;0.70;;;30.00;99.90;;;;;;4956411;28;20172;-75
2022/06/26 08:07:43;;;;;;;0.90;0.77;;;30.00;99.90;;;;;;4956569;28;20664;-76
2022/06/26 08:10:09;;;;;;;0.83;0.83;;;30.00;99.90;;;;;;4955395;28;20420;-76
2022/06/26 08:12:35;;;;;;;1.80;0.70;;;29.80;99.90;;;;;;4956000;28;20207;-76
2022/06/26 08:15:00;;;;;;;1.33;0.73;;;29.80;99.90;;;;;;4956418;28;20177;-75
2022/06/26 08:17:26;;;;;;;1.40;1.30;;;30.10;99.90;;;;;;4956728;28;20208;-76
2022/06/26 08:19:51;;;;;;;1.30;1.20;;;30.60;99.90;;;;;;4957450;28;20654;-75
2022/06/26 08:22:17;;;;;;;0.87;0.80;;;30.80;99.90;;;;;;4956523;28;20206;-76
2022/06/26 08:24:43;;;;;;;0.80;0.80;;;30.70;99.90;;;;;;4956337;28;20169;-76
2022/06/26 08:27:09;;;;;;;1.27;1.23;;;30.90;99.90;;;;;;4956233;28;20177;-76
2022/06/26 08:29:35;;;;;;;1.30;0.87;;;30.90;99.90;;;;;;4956110;28;20644;-76
2022/06/26 08:32:02;;;;;;;1.20;0.83;;;30.90;99.90;;;;;;4955605;28;20463;-75
2022/06/26 08:34:27;;;;;;;0.70;0.70;;;30.80;99.90;;;;;;4955756;28;20459;-75
2022/06/26 08:36:54;;;;;;;0.70;0.70;;;31.00;99.90;;;;;;4955851;28;20456;-76
2022/06/26 08:39:20;;;;;;;1.00;0.70;;;31.30;99.90;;;;;;4955786;28;20680;-75
2022/06/26 08:41:47;;;;;;;1.63;0.60;;;31.40;99.90;;;;;;4955663;28;20436;-76
2022/06/26 08:44:14;;;;;;;0.80;0.80;;;31.60;99.90;;;;;;4954429;28;20766;-76
2022/06/26 08:46:42;;;;;;;1.10;0.90;;;31.80;99.90;;;;;;4955889;28;20472;-76
2022/06/26 08:49:10;;;;;;;3.10;2.90;;;31.60;99.90;;;;;;4955775;28;20419;-76
2022/06/26 08:51:41;;;;;;;0.73;0.60;;;31.80;99.90;;;;;;4955175;28;20487;-76
2022/06/26 08:54:09;;;;;;;1.33;0.80;;;31.80;99.90;;;;;;4955535;28;20413;-75
2022/06/26 08:56:36;;;;;;;0.67;0.60;;;32.10;99.90;;;;;;4955661;28;20460;-76
2022/06/26 08:59:02;;;;;;;0.70;0.60;;;31.70;99.90;;;;;;4955890;28;20428;-76
2022/06/26 09:01:28;;;;;;;1.00;1.00;;;31.70;99.90;;;;;;4955117;28;20441;-76
2022/06/26 09:03:54;;;;;;;0.60;0.60;;;31.90;99.90;;;;;;4954945;28;20431;-76
2022/06/26 09:06:19;;;;;;;0.80;0.80;;;32.10;99.90;;;;;;4955109;28;20204;-76
2022/06/26 09:08:48;;;;;;;1.43;0.60;;;32.40;99.90;;;;;;4955390;28;20176;-76
2022/06/26 09:11:15;;;;;;;0.60;0.60;;;32.50;99.90;;;;;;4955116;28;20669;-76
2022/06/26 09:13:43;;;;;;;0.60;0.60;;;32.20;99.90;;;;;;4955502;28;20835;-76
2022/06/26 09:16:10;;;;;;;1.17;0.70;;;32.30;99.90;;;;;;4956499;28;20412;-76
2022/06/26 09:18:40;;;;;;;0.87;0.70;;;32.00;99.90;;;;;;4969968;28;20986;-77
2022/06/26 09:21:07;;;;;;;0.60;0.60;;;32.20;99.90;;;;;;4955006;28;20471;-77
2022/06/26 09:23:37;;;;;;;1.20;0.70;;;32.20;99.90;;;;;;4955018;28;20455;-76
2022/06/26 09:26:03;;;;;;;0.80;0.70;;;32.50;99.90;;;;;;4955114;28;20412;-76
2022/06/26 09:28:29;;;;;;;1.47;0.70;;;32.20;99.90;;;;;;4954802;28;20420;-76
2022/06/26 09:30:56;;;;;;;0.60;0.60;;;32.50;99.90;;;;;;4954573;28;20443;-76
2022/06/26 09:33:27;;;;;;;1.00;0.70;;;32.30;99.90;;;;;;4954813;28;20484;-76
2022/06/26 09:35:54;;;;;;;0.73;0.73;;;32.70;99.90;;;;;;4954985;28;20471;-76
2022/06/26 09:38:22;;;;;;;0.87;0.70;;;33.20;99.90;;;;;;4954562;28;20464;-76
2022/06/26 09:40:53;;;;;;;0.73;0.73;;;33.10;99.90;;;;;;4954453;28;20901;-76
2022/06/26 09:43:32;;;;;;;0.70;0.70;;;32.80;99.90;;;;;;4954875;28;20422;-76
2022/06/26 09:46:06;;;;;;;1.57;0.83;;;32.90;99.90;;;;;;4954786;28;20411;-76
2022/06/26 09:48:33;;;;;;;2.33;0.70;;;33.40;99.90;;;;;;4954576;28;20428;-76
2022/06/26 09:51:00;;;;;;;1.17;1.07;;;33.20;99.90;;;;;;4954295;28;20480;-76
2022/06/26 09:53:27;;;;;;;1.20;1.10;;;33.40;99.90;;;;;;4954481;28;20834;-76
2022/06/26 09:55:55;;;;;;;0.70;0.70;;;32.90;99.90;;;;;;4954588;28;20420;-76
2022/06/26 09:58:21;;;;;;;0.70;0.70;;;32.80;99.90;;;;;;4954304;28;20464;-76
2022/06/26 10:06:25;;;;;;;1.13;0.90;;;32.30;99.90;;;;;;4954167;28;20885;-76
2022/06/26 10:06:26;;;;;;;0.90;0.90;;;30.90;99.90;;;;;;4954469;29;20424;-76
2022/06/26 10:08:54;;;;;;;1.27;0.90;;;30.50;99.90;;;;;;4954365;28;20471;-77
2022/06/26 10:11:27;;;;;;;0.70;0.70;;;30.50;99.90;;;;;;4953936;28;20936;-76
2022/06/26 10:13:55;;;;;;;1.07;0.97;;;31.20;99.90;;;;;;4969175;28;20437;-76
2022/06/26 10:16:39;;;;;;;3.40;0.70;;;32.00;99.90;;;;;;4954155;28;20417;-76
2022/06/26 10:19:28;;;;;;;0.70;0.60;;;32.00;99.90;;;;;;4954287;28;20463;-76
2022/06/26 10:21:54;;;;;;;0.60;0.60;;;31.30;99.90;;;;;;4954333;28;20925;-76
2022/06/26 10:24:20;;;;;;;1.00;1.00;;;31.40;99.90;;;;;;4953948;28;20420;-76
2022/06/26 10:26:57;;;;;;;1.47;1.37;;;32.00;99.90;;;;;;4953983;28;20912;-76
2022/06/26 10:29:32;;;;;;;0.80;0.70;;;32.50;99.90;;;;;;4953860;28;20180;-76
2022/06/26 10:31:57;;;;;;;0.80;0.80;;;32.40;99.90;;;;;;4953518;28;20446;-76
2022/06/26 10:34:25;;;;;;;0.93;0.70;;;32.20;99.90;;;;;;4968528;28;20853;-76
2022/06/26 10:36:57;;;;;;;3.37;1.00;;;32.60;99.90;;;;;;4953999;28;20204;-76
2022/06/26 10:39:23;;;;;;;1.13;0.80;;;32.70;99.90;;;;;;4953600;28;20819;-76
2022/06/26 10:44:42;;;;;;;0.70;0.60;;;32.60;99.90;;;;;;4953729;29;20268;-77
2022/06/26 10:47:15;;;;;;;1.67;0.83;;;32.30;99.90;;;;;;4953834;28;20436;-76
2022/06/26 10:49:51;;;;;;;1.50;1.10;;;32.40;99.90;;;;;;4953536;28;20519;-76
2022/06/26 10:52:25;;;;;;;0.70;0.70;;;33.10;99.90;;;;;;4953559;28;20447;-77
2022/06/26 10:54:52;;;;;;;1.53;0.80;;;33.40;99.90;;;;;;4953593;28;20416;-76
2022/06/26 10:57:30;;;;;;;2.53;0.93;;;33.20;99.90;;;;;;4953654;28;20482;-76
2022/06/26 10:59:58;;;;;;;2.30;0.80;;;32.90;99.90;;;;;;4953680;28;20459;-76
2022/06/26 11:02:24;;;;;;;0.87;0.60;;;32.60;99.90;;;;;;4953225;28;20945;-77
2022/06/26 11:04:51;;;;;;;0.70;0.70;;;32.50;99.90;;;;;;4953533;28;20405;-77
2022/06/26 11:07:19;;;;;;;2.20;0.70;;;32.00;99.90;;;;;;4953727;28;20432;-76
2022/06/26 11:09:45;;;;;;;0.70;0.67;;;31.20;99.90;;;;;;4953368;28;20412;-76
2022/06/26 11:12:12;;;;;;;0.60;0.60;;;30.70;99.90;;;;;;4953223;28;20839;-76
2022/06/26 11:14:37;;;;;;;0.83;0.80;;;30.60;99.90;;;;;;4953308;28;20186;-77
2022/06/26 11:17:05;;;;;;;0.87;0.87;;;30.40;99.90;;;;;;4953427;28;20470;-77
2022/06/26 11:20:46;;;;;;;0.80;0.80;;;30.10;99.90;;;;;;4953212;28;20223;-77
2022/06/26 11:22:18;;;;;;;1.47;0.80;;;30.00;99.90;;;;;;4953112;28;20864;-77
2022/06/26 11:24:48;;;;;;;4.20;1.10;;;29.60;99.90;;;;;;4953435;28;20413;-76
2022/06/26 11:27:14;;;;;;;3.03;0.87;;;29.10;99.90;;;;;;4953543;28;20268;-76
2022/06/26 11:29:40;;;;;;;1.43;0.97;;;28.90;99.90;;;;;;4957005;28;20975;-76
2022/06/26 11:32:06;;;;;;;2.60;0.80;;;29.10;99.90;;;;;;4956748;28;20708;-77
2022/06/26 11:34:32;;;;;;;0.83;0.70;;;29.40;99.90;;;;;;4956847;28;20173;-75
2022/06/26 11:36:59;;;;;;;1.07;1.00;;;29.80;99.90;;;;;;4957183;28;20452;-76
2022/06/26 11:39:36;;;;;;;1.00;0.73;;;29.90;99.90;;;;;;4956731;28;20200;-76
2022/06/26 11:42:01;;;;;;;3.60;0.80;;;30.00;99.90;;;;;;4971531;28;20444;-76
2022/06/26 11:44:27;;;;;;;0.70;0.60;;;30.10;99.90;;;;;;4956852;28;20412;-76
2022/06/26 11:46:52;;;;;;;1.00;1.00;;;30.30;99.90;;;;;;4956984;28;20604;-76
2022/06/26 11:49:23;;;;;;;0.70;0.70;;;30.40;99.90;;;;;;4956808;28;20235;-76
2022/06/26 11:51:49;;;;;;;0.80;0.73;;;30.30;99.90;;;;;;4956697;28;20193;-76
2022/06/26 11:54:24;;;;;;;1.00;0.90;;;30.20;99.90;;;;;;4956867;28;20412;-76
2022/06/26 11:56:49;;;;;;;0.90;0.90;;;30.30;99.90;;;;;;4956739;28;20638;-76
2022/06/26 11:59:15;;;;;;;0.90;0.90;;;30.20;99.90;;;;;;4956709;28;20424;-76
2022/06/26 12:01:40;;;;;;;1.60;0.70;;;30.00;99.90;;;;;;4956581;28;20670;-76
2022/06/26 12:04:06;;;;;;;0.70;0.70;;;30.30;99.90;;;;;;4956872;28;20184;-76
2022/06/26 12:06:38;;;;;;;0.80;0.80;;;30.40;99.90;;;;;;4956579;28;20247;-76
2022/06/26 12:09:20;;;;;;;0.70;0.70;;;30.60;99.90;;;;;;4955430;28;20427;-76
2022/06/26 12:11:46;;;;;;;1.57;0.90;;;30.50;99.90;;;;;;4956303;28;20432;-76
2022/06/26 12:14:15;;;;;;;1.00;0.90;;;30.40;99.90;;;;;;4955226;28;20420;-76
2022/06/26 12:16:49;;;;;;;1.17;0.70;;;30.20;99.90;;;;;;4956321;28;20467;-76
2022/06/26 12:19:15;;;;;;;0.60;0.60;;;30.40;99.90;;;;;;4956267;28;20495;-76
2022/06/26 12:21:44;;;;;;;0.80;0.63;;;30.30;99.90;;;;;;4956095;28;20503;-76
2022/06/26 12:24:11;;;;;;;0.80;0.80;;;30.20;99.90;;;;;;4956391;28;20412;-77
2022/06/26 12:26:38;;;;;;;1.10;1.00;;;30.20;99.90;;;;;;4956212;28;20789;-76
2022/06/26 12:29:09;;;;;;;0.70;0.70;;;30.20;99.90;;;;;;4956120;28;20416;-76
2022/06/26 12:31:35;;;;;;;0.80;0.80;;;30.10;99.90;;;;;;4955697;28;20547;-77
2022/06/26 12:34:04;;;;;;;1.40;0.70;;;30.20;99.90;;;;;;4956080;28;20504;-76
2022/06/26 12:36:30;;;;;;;0.67;0.60;;;30.20;99.90;;;;;;4956176;28;20192;-76
2022/06/26 12:38:56;;;;;;;1.37;0.70;;;30.00;99.90;;;;;;4955411;28;20420;-76
2022/06/26 12:41:22;;;;;;;1.43;0.77;;;30.00;99.90;;;;;;4955806;28;20463;-77
2022/06/26 12:43:50;;;;;;;0.73;0.73;;;30.10;99.90;;;;;;4956372;28;20315;-76
2022/06/26 12:46:16;;;;;;;1.47;0.70;;;30.10;99.90;;;;;;4955881;28;20181;-76
2022/06/26 12:48:42;;;;;;;1.33;0.80;;;30.10;99.90;;;;;;4955717;28;20424;-76
2022/06/26 12:51:09;;;;;;;0.97;0.80;;;29.90;99.90;;;;;;4955669;28;20444;-76
2022/06/26 12:53:34;;;;;;;1.17;1.13;;;29.70;99.90;;;;;;4954360;28;20439;-76
2022/06/26 12:56:00;;;;;;;0.83;0.60;;;29.60;99.90;;;;;;4955806;28;20417;-76
2022/06/26 12:58:26;;;;;;;1.53;1.00;;;29.40;99.90;;;;;;4955855;28;20223;-77
2022/06/26 13:00:52;;;;;;;0.90;0.80;;;29.30;99.90;;;;;;4955513;28;20204;-77
2022/06/26 13:03:17;;;;;;;0.80;0.80;;;29.20;99.90;;;;;;4956499;28;20479;-76
2022/06/26 13:05:43;;;;;;;0.70;0.70;;;28.90;99.90;;;;;;4957157;28;20181;-76
2022/06/26 13:08:12;;;;;;;1.80;0.87;;;28.90;99.90;;;;;;4955537;28;20288;-76
2022/06/26 13:10:38;;;;;;;2.40;0.70;;;29.00;99.90;;;;;;4955188;28;20177;-76
2022/06/26 13:13:05;;;;;;;0.97;0.97;;;29.10;99.90;;;;;;4955276;28;20432;-76
2022/06/26 13:15:30;;;;;;;0.80;0.80;;;29.10;99.90;;;;;;4955333;28;20511;-77
2022/06/26 13:17:56;;;;;;;2.17;0.90;;;29.10;99.90;;;;;;4955368;28;20547;-76
2022/06/26 13:20:21;;;;;;;0.80;0.80;;;29.10;99.90;;;;;;4955005;28;20520;-76
2022/06/26 13:22:47;;;;;;;0.97;0.70;;;29.00;99.90;;;;;;4955082;28;20200;-76
2022/06/26 13:25:12;;;;;;;0.80;0.80;;;28.90;99.90;;;;;;4955232;28;20183;-76
2022/06/26 13:27:38;;;;;;;1.93;1.07;;;29.10;99.90;;;;;;4955196;28;20184;-76
2022/06/26 13:30:05;;;;;;;0.90;0.90;;;29.00;99.90;;;;;;4954878;28;20245;-76
2022/06/26 13:32:30;;;;;;;1.70;0.70;;;28.60;99.90;;;;;;4954583;28;20275;-76
2022/06/26 13:34:56;;;;;;;3.80;1.17;;;28.50;99.90;;;;;;4954869;28;20428;-77
2022/06/26 13:37:21;;;;;;;1.27;0.77;;;28.60;99.90;;;;;;4954832;28;20223;-76
2022/06/26 13:39:47;;;;;;;0.80;0.80;;;28.60;99.90;;;;;;4954911;28;20177;-76
2022/06/26 13:42:13;;;;;;;0.70;0.70;;;28.80;99.90;;;;;;4954749;28;20219;-76
2022/06/26 13:44:38;;;;;;;0.90;0.90;;;28.80;99.90;;;;;;4954594;28;20188;-77
2022/06/26 13:47:04;;;;;;;0.80;0.80;;;28.70;99.90;;;;;;4954708;28;20181;-76
2022/06/26 13:49:30;;;;;;;1.00;0.70;;;28.90;99.90;;;;;;4954448;28;20251;-76
2022/06/26 13:51:55;;;;;;;1.60;0.80;;;29.00;99.90;;;;;;4954249;28;20215;-76
2022/06/26 13:54:21;;;;;;;0.70;0.70;;;29.00;99.90;;;;;;4954402;28;20271;-76
2022/06/26 13:56:46;;;;;;;1.17;1.00;;;28.90;99.90;;;;;;4954405;28;20221;-76
2022/06/26 13:59:12;;;;;;;0.77;0.70;;;28.90;99.90;;;;;;4954394;28;20251;-76
2022/06/26 14:01:38;;;;;;;0.90;0.90;;;29.00;99.90;;;;;;4954087;28;20273;-76
2022/06/26 14:04:03;;;;;;;1.10;0.70;;;28.80;99.90;;;;;;4954315;28;20180;-76
2022/06/26 14:06:29;;;;;;;1.00;1.00;;;28.70;99.90;;;;;;4954275;28;20176;-76
2022/06/26 14:08:54;;;;;;;0.73;0.73;;;28.50;99.90;;;;;;4954351;28;20196;-76
2022/06/26 14:11:21;;;;;;;2.50;0.87;;;28.60;99.90;;;;;;4953944;28;20204;-76
2022/06/26 14:13:47;;;;;;;2.10;0.70;;;28.50;99.90;;;;;;4954199;28;20216;-76
2022/06/26 14:16:13;;;;;;;1.00;0.90;;;28.60;99.90;;;;;;4953988;28;20905;-77
2022/06/26 14:18:39;;;;;;;0.80;0.80;;;28.60;99.90;;;;;;4954063;28;20459;-76
2022/06/26 14:21:04;;;;;;;3.50;0.70;;;28.50;99.90;;;;;;4953884;28;20569;-76
2022/06/26 14:26:16;;;;;;;1.27;1.00;;;28.50;99.90;;;;;;4954265;29;20609;-76